Time;durP1;ratioP1;P1;durP2;ratioP2;P2;SDS_P1;SDS_P2;PMS_P1;PMS_P2;Temp;Humidity;BMP_temperature;BMP_pressure;BME280_temperature;BME280_humidity;BME280_pressure;Samples;Min_cycle;Max_cycle;Signal;HPM_P1;HPM_P2
2022/01/04 00:00:49;;;;;;;0.13;0.13;;;;;;;19.78;45.15;99896.28;5117954;28;20103;-34
2022/01/04 00:03:14;;;;;;;0.20;0.20;;;;;;;19.77;44.99;99886.38;5116105;28;20043;-33
2022/01/04 00:05:40;;;;;;;0.20;0.20;;;;;;;19.78;44.94;99889.94;5098035;28;20391;-34
2022/01/04 00:08:10;;;;;;;0.20;0.20;;;;;;;19.78;44.81;99887.19;5101570;28;20117;-34
2022/01/04 00:10:36;;;;;;;0.20;0.20;;;;;;;19.78;45.32;99876.13;5100438;28;20058;-34
2022/01/04 00:13:33;;;;;;;0.20;0.20;;;;;;;19.78;44.91;99867.84;5095178;28;20043;-34
2022/01/04 00:15:49;;;;;;;0.20;0.20;;;;;;;19.77;44.91;99878.06;5100728;28;20040;-35
2022/01/04 00:18:16;;;;;;;0.20;0.20;;;;;;;19.78;44.73;99874.19;5114410;28;20040;-35
2022/01/04 00:20:41;;;;;;;0.20;0.20;;;;;;;19.79;45.25;99875.00;5112612;28;20039;-34
2022/01/04 00:23:07;;;;;;;0.20;0.20;;;;;;;19.77;44.96;99864.25;5115338;28;20062;-33
2022/01/04 00:25:33;;;;;;;0.20;0.20;;;;;;;19.77;45.13;99860.66;5107581;28;20069;-34
2022/01/04 00:28:00;;;;;;;0.20;0.20;;;;;;;19.77;44.95;99850.44;5113687;28;20161;-38
2022/01/04 00:30:28;;;;;;;0.20;0.20;;;;;;;19.77;45.29;99835.78;5113923;28;20039;-34
2022/01/04 00:32:54;;;;;;;;;;;;;;;19.77;44.88;99828.34;5115982;28;20052;-34
2022/01/04 00:35:20;;;;;;;0.10;0.10;;;;;;;19.76;45.25;99821.16;5117160;28;19946;-37
2022/01/04 00:37:46;;;;;;;0.20;0.20;;;;;;;19.77;45.14;99816.44;5114141;28;20488;-35
2022/01/04 00:40:12;;;;;;;0.20;0.20;;;;;;;19.76;45.10;99804.59;5117878;28;20051;-34
2022/01/04 00:42:37;;;;;;;0.20;0.20;;;;;;;19.77;44.85;99806.25;5100676;28;20508;-37
2022/01/04 00:45:03;;;;;;;0.20;0.20;;;;;;;19.77;45.00;99803.47;5095616;28;20043;-34
2022/01/04 00:47:41;;;;;;;0.20;0.20;;;;;;;19.78;45.16;99793.25;5102756;28;20055;-35
2022/01/04 00:50:07;;;;;;;0.10;0.10;;;;;;;19.77;44.78;99792.44;5114449;28;20539;-33
2022/01/04 00:52:33;;;;;;;0.20;0.20;;;;;;;19.77;45.16;99788.81;5113372;28;20052;-35
2022/01/04 00:54:59;;;;;;;0.20;0.20;;;;;;;19.76;45.21;99779.72;5109887;28;20047;-34
2022/01/04 00:57:24;;;;;;;0.20;0.20;;;;;;;19.76;44.90;99771.44;5114508;28;20047;-35
2022/01/04 00:59:50;;;;;;;0.15;0.15;;;;;;;19.77;44.96;99772.25;5114987;28;20119;-35
2022/01/04 01:02:15;;;;;;;0.20;0.20;;;;;;;19.77;45.20;99763.97;5115041;28;20039;-34
2022/01/04 01:04:41;;;;;;;0.20;0.20;;;;;;;19.76;45.12;99757.63;5113099;28;20050;-34
2022/01/04 01:07:08;;;;;;;0.10;0.10;;;;;;;19.77;44.84;99758.44;5099519;28;20044;-36
2022/01/04 01:09:40;;;;;;;0.10;0.10;;;;;;;19.77;45.06;99744.63;5114464;28;20042;-34
2022/01/04 01:12:06;;;;;;;0.20;0.20;;;;;;;19.76;45.24;99743.81;5116013;28;20039;-34
2022/01/04 01:14:32;;;;;;;0.20;0.20;;;;;;;19.77;45.14;99747.38;5113969;28;20446;-35
2022/01/04 01:16:58;;;;;;;0.20;0.20;;;;;;;19.77;45.04;99739.94;5116095;28;20047;-34
2022/01/04 01:19:23;;;;;;;0.10;0.10;;;;;;;19.78;45.06;99744.34;5112193;28;20627;-35
2022/01/04 01:21:49;;;;;;;0.20;0.20;;;;;;;19.76;44.86;99743.81;5107237;28;20070;-36
2022/01/04 01:24:17;;;;;;;0.10;0.10;;;;;;;19.77;45.07;99741.88;5111334;28;20420;-34
2022/01/04 01:26:45;;;;;;;0.10;0.10;;;;;;;19.76;45.29;99740.25;5111564;28;20100;-35
2022/01/04 01:29:11;;;;;;;0.10;0.10;;;;;;;19.76;45.06;99732.75;5112227;28;20478;-35
2022/01/04 01:31:37;;;;;;;0.10;0.10;;;;;;;19.76;45.23;99738.28;5114591;28;20054;-35
2022/01/04 01:34:03;;;;;;;0.20;0.20;;;;;;;19.76;44.98;99732.75;5111492;28;20043;-36
2022/01/04 01:36:28;;;;;;;0.20;0.20;;;;;;;19.76;44.99;99741.06;5113154;28;20058;-35
2022/01/04 01:38:54;;;;;;;0.15;0.15;;;;;;;19.76;44.89;99741.06;5110696;28;20417;-34
2022/01/04 01:41:20;;;;;;;0.20;0.20;;;;;;;19.76;45.24;99738.28;5103181;28;20483;-34
2022/01/04 01:43:47;;;;;;;0.20;0.20;;;;;;;19.77;45.07;99733.56;5114095;28;20488;-34
2022/01/04 01:46:12;;;;;;;0.10;0.10;;;;;;;19.76;45.27;99729.19;5117313;28;20048;-36
2022/01/04 01:48:38;;;;;;;0.20;0.20;;;;;;;19.77;45.04;99728.91;5118571;28;20046;-36
2022/01/04 01:51:04;;;;;;;0.17;0.17;;;;;;;19.77;44.93;99722.53;5114735;28;20043;-34
2022/01/04 01:53:30;;;;;;;0.20;0.20;;;;;;;19.76;45.01;99721.72;5095120;28;20079;-34
2022/01/04 01:55:55;;;;;;;0.20;0.20;;;;;;;19.75;44.99;99717.31;5111688;28;20050;-34
2022/01/04 01:58:21;;;;;;;0.20;0.20;;;;;;;19.77;44.74;99708.72;5110881;28;20047;-34
2022/01/04 02:00:47;;;;;;;0.20;0.20;;;;;;;19.76;45.10;99718.94;5114030;28;20043;-34
2022/01/04 02:03:13;;;;;;;0.20;0.20;;;;;;;19.75;44.91;99720.09;5111302;28;20047;-34
2022/01/04 02:05:39;;;;;;;0.20;0.20;;;;;;;19.76;44.98;99712.63;5116857;28;20071;-35
2022/01/04 02:08:06;;;;;;;0.20;0.20;;;;;;;19.77;45.14;99708.72;5114630;28;20438;-34
2022/01/04 02:10:32;;;;;;;0.20;0.20;;;;;;;19.76;44.80;99705.13;5096962;28;20039;-34
2022/01/04 02:12:58;;;;;;;0.10;0.10;;;;;;;19.76;45.04;99705.13;5095681;28;20130;-34
2022/01/04 02:15:25;;;;;;;0.20;0.20;;;;;;;19.76;44.97;99698.81;5096697;28;20043;-35
2022/01/04 02:17:51;;;;;;;0.20;0.20;;;;;;;19.76;45.07;99699.63;5111165;28;20133;-34
2022/01/04 02:20:17;;;;;;;0.20;0.20;;;;;;;19.75;45.00;99692.47;5096617;28;20085;-34
2022/01/04 02:22:43;;;;;;;0.20;0.20;;;;;;;19.76;44.90;99682.22;5111301;28;20139;-34
2022/01/04 02:25:09;;;;;;;0.20;0.20;;;;;;;19.76;44.90;99679.47;5116363;28;20772;-34
2022/01/04 02:27:37;;;;;;;0.20;0.20;;;;;;;19.75;45.06;99675.91;5100513;28;20051;-34
2022/01/04 02:30:06;;;;;;;0.17;0.17;;;;;;;19.75;44.89;99670.38;5078055;28;20444;-35
2022/01/04 02:32:31;;;;;;;0.20;0.20;;;;;;;19.75;44.85;99670.38;5092854;28;20039;-34
2022/01/04 02:34:57;;;;;;;0.20;0.20;;;;;;;19.75;44.87;99669.56;5113831;28;20088;-34
2022/01/04 02:37:25;;;;;;;0.20;0.20;;;;;;;19.75;45.18;99675.91;5113534;28;20051;-34
2022/01/04 02:39:53;;;;;;;0.20;0.20;;;;;;;19.74;45.01;99665.97;5110449;28;20044;-34
2022/01/04 02:42:19;;;;;;;0.20;0.20;;;;;;;19.74;45.23;99657.69;5117631;28;20042;-34
2022/01/04 02:44:44;;;;;;;0.20;0.20;;;;;;;19.73;44.90;99656.06;5111970;28;20051;-34
2022/01/04 02:47:11;;;;;;;0.20;0.20;;;;;;;19.75;45.08;99647.47;5111885;28;20074;-35
2022/01/04 02:49:36;;;;;;;0.20;0.20;;;;;;;19.74;44.91;99643.06;5097285;28;20040;-36
2022/01/04 02:52:03;;;;;;;0.20;0.20;;;;;;;19.74;44.91;99643.06;5095976;28;20050;-35
2022/01/04 02:54:28;;;;;;;0.10;0.10;;;;;;;19.74;44.94;99643.06;5108957;28;20058;-36
2022/01/04 02:56:54;;;;;;;0.20;0.20;;;;;;;19.74;45.09;99649.41;5108163;28;20422;-34
2022/01/04 02:59:20;;;;;;;0.20;0.20;;;;;;;19.75;44.89;99650.22;5112850;28;20371;-34
2022/01/04 03:01:45;;;;;;;0.10;0.10;;;;;;;19.74;45.25;99646.66;5098133;28;20055;-34
2022/01/04 03:04:11;;;;;;;0.10;0.10;;;;;;;19.75;45.13;99647.47;5109747;28;20043;-37
2022/01/04 03:06:37;;;;;;;0.10;0.10;;;;;;;19.75;44.98;99647.47;5099973;28;20042;-34
2022/01/04 03:09:04;;;;;;;0.20;0.20;;;;;;;19.73;44.91;99639.50;5117301;28;20048;-34
2022/01/04 03:11:30;;;;;;;0.20;0.20;;;;;;;19.74;44.90;99640.31;5101562;28;20095;-34
2022/01/04 03:13:56;;;;;;;0.13;0.13;;;;;;;19.74;44.74;99634.78;5114299;28;20035;-34
2022/01/04 03:16:22;;;;;;;0.10;0.10;;;;;;;19.74;45.10;99629.25;5118244;28;20177;-34
2022/01/04 03:19:03;;;;;;;0.13;0.13;;;;;;;19.73;44.96;99625.69;5118011;28;20047;-34
2022/01/04 03:21:30;;;;;;;0.20;0.20;;;;;;;19.73;44.94;99613.78;5116724;28;20047;-34
2022/01/04 03:23:56;;;;;;;0.10;0.10;;;;;;;19.73;44.91;99614.63;5111484;28;20048;-34
2022/01/04 03:26:22;;;;;;;0.20;0.20;;;;;;;19.73;44.65;99600.81;5116654;28;20586;-34
2022/01/04 03:28:48;;;;;;;0.15;0.15;;;;;;;19.73;45.03;99584.25;5101121;28;20559;-34
2022/01/04 03:31:14;;;;;;;0.20;0.20;;;;;;;19.73;45.08;99583.41;5101700;28;20047;-34
2022/01/04 03:33:40;;;;;;;0.20;0.20;;;;;;;19.73;44.89;99575.97;5111034;28;20048;-34
2022/01/04 03:36:06;;;;;;;0.20;0.20;;;;;;;19.73;45.12;99566.84;5115711;28;20062;-34
2022/01/04 03:38:31;;;;;;;0.15;0.15;;;;;;;19.71;44.80;99547.84;5114496;28;20093;-34
2022/01/04 03:40:57;;;;;;;0.20;0.20;;;;;;;19.72;45.03;99546.69;5119238;28;20075;-35
2022/01/04 03:43:23;;;;;;;0.20;0.20;;;;;;;19.74;44.73;99546.38;5098853;28;20043;-35
2022/01/04 03:45:49;;;;;;;0.20;0.20;;;;;;;19.72;45.12;99543.94;5119089;28;20036;-35
2022/01/04 03:48:15;;;;;;;0.20;0.20;;;;;;;19.72;45.04;99538.41;5113461;28;20530;-34
2022/01/04 03:50:41;;;;;;;0.20;0.20;;;;;;;19.72;44.96;99532.88;5096572;28;20046;-33
2022/01/04 03:53:07;;;;;;;0.20;0.20;;;;;;;19.71;44.88;99528.50;5114333;28;20123;-34
2022/01/04 03:55:32;;;;;;;0.20;0.20;;;;;;;19.71;45.10;99525.72;5080427;28;20436;-33
2022/01/04 03:57:58;;;;;;;0.20;0.20;;;;;;;19.72;44.71;99521.03;5114343;28;20083;-33
2022/01/04 04:00:24;;;;;;;0.20;0.20;;;;;;;19.72;45.12;99513.53;5116460;28;20047;-34
2022/01/04 04:02:49;;;;;;;0.20;0.20;;;;;;;19.72;44.81;99512.72;5115555;28;20043;-34
2022/01/04 04:05:15;;;;;;;0.20;0.20;;;;;;;19.72;44.84;99508.03;5115584;28;20039;-34
2022/01/04 04:07:42;;;;;;;0.20;0.20;;;;;;;19.73;44.95;99503.31;5097650;28;20043;-33
2022/01/04 04:10:09;;;;;;;0.10;0.10;;;;;;;19.72;44.84;99498.94;5101360;28;20126;-34
2022/01/04 04:12:34;;;;;;;0.10;0.10;;;;;;;19.71;45.11;99481.53;5115910;28;20054;-33
2022/01/04 04:15:04;;;;;;;0.20;0.20;;;;;;;19.72;44.87;99487.88;5096034;28;20043;-33
2022/01/04 04:17:30;;;;;;;0.10;0.10;;;;;;;19.72;44.70;99469.34;5098912;28;20518;-33
2022/01/04 04:19:56;;;;;;;0.20;0.20;;;;;;;19.71;45.10;99464.97;5112388;28;20046;-33
2022/01/04 04:22:22;;;;;;;0.20;0.20;;;;;;;19.72;44.73;99458.31;5112072;28;20040;-34
2022/01/04 04:24:47;;;;;;;0.20;0.20;;;;;;;19.72;44.75;99461.06;5112491;28;20043;-34
2022/01/04 04:27:14;;;;;;;0.20;0.20;;;;;;;19.72;44.79;99451.97;5098918;28;20101;-34
2022/01/04 04:29:40;;;;;;;0.20;0.20;;;;;;;19.72;44.94;99440.91;5115563;28;20050;-33
2022/01/04 04:32:06;;;;;;;0.20;0.20;;;;;;;19.71;45.05;99433.78;5115877;28;20043;-35
2022/01/04 04:34:32;;;;;;;0.20;0.20;;;;;;;19.71;44.75;99433.78;5112928;28;20048;-35
2022/01/04 04:36:58;;;;;;;0.20;0.20;;;;;;;19.71;44.74;99426.31;5114116;28;20054;-34
2022/01/04 04:39:23;;;;;;;0.20;0.20;;;;;;;19.71;44.86;99423.53;5102595;28;20473;-34
2022/01/04 04:41:50;;;;;;;0.20;0.20;;;;;;;19.70;44.86;99424.69;5116044;28;20044;-33
2022/01/04 04:44:16;;;;;;;0.13;0.13;;;;;;;19.70;44.80;99408.09;5080159;28;20035;-33
2022/01/04 04:46:42;;;;;;;0.17;0.17;;;;;;;19.70;44.78;99410.88;5097918;28;20046;-34
2022/01/04 04:49:07;;;;;;;0.20;0.20;;;;;;;19.71;45.19;99415.25;5115952;28;20044;-36
2022/01/04 04:51:33;;;;;;;0.20;0.20;;;;;;;19.71;45.09;99411.69;5114187;28;20413;-34
2022/01/04 04:53:59;;;;;;;0.20;0.20;;;;;;;19.71;44.82;99408.91;5114646;28;20044;-34
2022/01/04 04:56:25;;;;;;;0.20;0.20;;;;;;;19.71;44.70;99411.69;5115977;28;20082;-34
2022/01/04 04:58:50;;;;;;;0.10;0.10;;;;;;;19.70;45.01;99416.41;5115945;28;20462;-34
2022/01/04 05:01:16;;;;;;;0.20;0.20;;;;;;;19.70;45.18;99413.63;5115251;28;20058;-33
2022/01/04 05:03:42;;;;;;;0.20;0.20;;;;;;;19.70;44.82;99410.88;5113251;28;20043;-33
2022/01/04 05:06:07;;;;;;;0.20;0.20;;;;;;;19.71;44.94;99418.00;5118065;28;20046;-34
2022/01/04 05:08:33;;;;;;;0.20;0.20;;;;;;;19.70;44.75;99416.41;5116564;28;20051;-33
2022/01/04 05:10:59;;;;;;;0.20;0.20;;;;;;;19.70;44.88;99416.41;5103797;28;20043;-34
2022/01/04 05:13:25;;;;;;;0.20;0.20;;;;;;;19.70;44.97;99419.16;5113663;28;20085;-34
2022/01/04 05:15:50;;;;;;;0.20;0.20;;;;;;;19.70;44.77;99419.16;5112999;28;20051;-34
2022/01/04 05:18:16;;;;;;;0.20;0.20;;;;;;;19.70;44.88;99408.09;5115464;28;20047;-34
2022/01/04 05:20:42;;;;;;;0.20;0.20;;;;;;;19.70;44.89;99410.06;5114348;28;20047;-34
2022/01/04 05:23:07;;;;;;;0.20;0.20;;;;;;;19.70;45.04;99421.09;5108287;28;20054;-34
2022/01/04 05:25:33;;;;;;;0.20;0.20;;;;;;;19.70;44.86;99410.88;5115094;28;20120;-33
2022/01/04 05:27:59;;;;;;;0.20;0.20;;;;;;;19.70;44.76;99410.06;5113173;28;20500;-34
2022/01/04 05:30:24;;;;;;;0.20;0.20;;;;;;;19.70;44.84;99410.06;5118574;28;20455;-35
2022/01/04 05:32:50;;;;;;;0.20;0.20;;;;;;;19.71;45.00;99404.19;5111205;28;20074;-33
2022/01/04 05:35:15;;;;;;;0.20;0.20;;;;;;;19.70;44.91;99405.34;5116672;28;20039;-34
2022/01/04 05:37:41;;;;;;;0.20;0.20;;;;;;;19.71;45.13;99417.19;5112267;28;20043;-34
2022/01/04 05:40:08;;;;;;;0.17;0.17;;;;;;;19.71;44.70;99419.97;5112660;28;20047;-36
2022/01/04 05:42:33;;;;;;;0.20;0.20;;;;;;;19.71;44.77;99422.72;5113121;28;20478;-36
2022/01/04 05:44:59;;;;;;;0.20;0.20;;;;;;;19.70;45.03;99413.63;5116058;28;20061;-34
2022/01/04 05:47:24;;;;;;;0.20;0.20;;;;;;;19.70;44.95;99399.81;5110497;28;20534;-34
2022/01/04 05:49:51;;;;;;;0.20;0.20;;;;;;;19.69;45.17;99395.44;5117232;28;20051;-36
2022/01/04 05:52:17;;;;;;;0.20;0.20;;;;;;;19.70;45.14;99390.72;5096783;28;20051;-34
2022/01/04 05:54:43;;;;;;;0.20;0.20;;;;;;;19.70;44.92;99386.00;5108647;28;20414;-34
2022/01/04 05:57:09;;;;;;;0.20;0.20;;;;;;;19.70;45.01;99383.25;5109359;28;20443;-34
2022/01/04 05:59:35;;;;;;;0.20;0.20;;;;;;;19.70;45.04;99374.97;5093500;28;20043;-34
2022/01/04 06:02:02;;;;;;;0.20;0.20;;;;;;;19.71;44.97;99378.53;5096471;28;20079;-34
2022/01/04 06:04:28;;;;;;;0.20;0.20;;;;;;;19.70;45.03;99358.38;5095033;28;20050;-34
2022/01/04 06:06:54;;;;;;;0.20;0.20;;;;;;;19.71;44.91;99361.97;5093130;28;20053;-34
2022/01/04 06:09:26;;;;;;;0.20;0.20;;;;;;;19.70;44.76;99363.09;5110839;28;20040;-35
2022/01/04 06:15:02;;;;;;;0.20;0.20;;;;;;;19.71;44.87;99356.44;5177216;27;20196;-34
2022/01/04 06:17:16;;;;;;;0.20;0.20;;;;;;;19.70;44.76;99352.88;5142732;27;20411;-35
2022/01/04 06:19:42;;;;;;;0.20;0.20;;;;;;;19.70;45.08;99352.06;5148991;27;20316;-34
2022/01/04 06:22:08;;;;;;;0.20;0.20;;;;;;;19.70;44.77;99358.38;5145710;27;20073;-34
2022/01/04 06:24:34;;;;;;;0.20;0.20;;;;;;;19.69;45.04;99365.06;5143054;27;20045;-34
2022/01/04 06:26:59;;;;;;;0.20;0.20;;;;;;;19.70;45.04;99354.81;5130080;27;20047;-34
2022/01/04 06:29:25;;;;;;;0.20;0.20;;;;;;;19.69;44.88;99342.13;5130928;27;20053;-34
2022/01/04 06:31:51;;;;;;;0.20;0.20;;;;;;;19.71;45.05;99339.88;5131366;27;20046;-34
2022/01/04 06:34:17;;;;;;;0.20;0.20;;;;;;;19.69;44.75;99325.56;5131518;27;20081;-33
2022/01/04 06:36:43;;;;;;;0.20;0.20;;;;;;;19.69;45.05;99329.16;5150419;27;20050;-34
2022/01/04 06:39:08;;;;;;;0.20;0.20;;;;;;;19.69;44.84;99325.56;5147438;27;20050;-33
2022/01/04 06:41:34;;;;;;;0.20;0.20;;;;;;;19.69;45.18;99315.34;5148713;27;20046;-34
2022/01/04 06:44:00;;;;;;;0.20;0.20;;;;;;;19.69;44.74;99315.34;5147583;27;20079;-34
2022/01/04 06:46:25;;;;;;;0.20;0.20;;;;;;;19.69;44.97;99314.50;5147977;27;20413;-34
2022/01/04 06:48:51;;;;;;;0.20;0.20;;;;;;;19.69;44.94;99317.25;5149788;27;20441;-34
2022/01/04 06:51:17;;;;;;;0.20;0.20;;;;;;;19.69;44.81;99325.56;5149934;27;20082;-34
2022/01/04 06:53:43;;;;;;;0.20;0.20;;;;;;;19.69;44.98;99323.63;5143712;27;20046;-34
2022/01/04 06:56:08;;;;;;;0.20;0.20;;;;;;;19.68;45.24;99313.69;5147306;27;20042;-34
2022/01/04 06:58:34;;;;;;;0.20;0.20;;;;;;;19.70;44.72;99322.50;5145234;27;20483;-34
2022/01/04 07:01:00;;;;;;;0.20;0.20;;;;;;;19.70;45.03;99318.91;5149983;27;20035;-34
2022/01/04 07:03:29;;;;;;;0.20;0.20;;;;;;;19.69;45.05;99320.88;5148711;27;20047;-34
2022/01/04 07:05:55;;;;;;;0.20;0.20;;;;;;;19.69;45.12;99320.88;5129872;27;20046;-34
2022/01/04 07:08:20;;;;;;;0.20;0.20;;;;;;;19.69;44.83;99320.88;5151384;27;20496;-34
2022/01/04 07:10:46;;;;;;;0.20;0.20;;;;;;;19.69;45.20;99325.56;5147846;27;20043;-34
2022/01/04 07:13:12;;;;;;;0.17;0.17;;;;;;;19.69;44.96;99320.88;5144486;27;20035;-35
2022/01/04 07:15:42;;;;;;;0.20;0.20;;;;;;;19.69;45.15;99315.34;5147422;27;20051;-34
2022/01/04 07:18:07;;;;;;;0.20;0.20;;;;;;;19.69;44.89;99307.06;5153727;27;20446;-35
2022/01/04 07:20:33;;;;;;;0.20;0.20;;;;;;;19.70;45.20;99302.34;5146200;27;20074;-36
2022/01/04 07:22:59;;;;;;;0.20;0.20;;;;;;;19.69;45.15;99303.47;5145083;27;20069;-34
2022/01/04 07:25:24;;;;;;;0.10;0.10;;;;;;;19.70;44.97;99294.06;5131696;27;20045;-35
2022/01/04 07:27:50;;;;;;;0.13;0.13;;;;;;;19.70;44.82;99296.81;5133897;27;20047;-34
2022/01/04 07:30:16;;;;;;;0.20;0.20;;;;;;;19.70;45.43;99288.53;5134014;27;20045;-38
2022/01/04 07:32:41;;;;;;;0.10;0.10;;;;;;;19.71;45.21;99295.69;5128388;27;20054;-35
2022/01/04 07:35:08;;;;;;;0.10;0.10;;;;;;;19.70;44.79;99302.34;5130225;27;20043;-34
2022/01/04 07:37:33;;;;;;;0.15;0.15;;;;;;;19.70;45.10;99296.81;5136978;27;20046;-34
2022/01/04 07:39:59;;;;;;;0.20;0.20;;;;;;;19.69;44.72;99298.78;5133110;27;20054;-35
2022/01/04 07:42:24;;;;;;;0.20;0.20;;;;;;;19.70;45.21;99291.31;5135545;27;20044;-34
2022/01/04 07:44:52;;;;;;;0.20;0.20;;;;;;;19.69;44.81;99289.66;5137071;27;20039;-35
2022/01/04 07:47:18;;;;;;;0.20;0.20;;;;;;;19.69;44.92;99282.19;5134548;27;20050;-36
2022/01/04 07:49:44;;;;;;;0.20;0.20;;;;;;;19.70;44.83;99274.72;5134382;27;20042;-34
2022/01/04 07:52:09;;;;;;;0.20;0.20;;;;;;;19.69;45.08;99282.19;5133552;27;20550;-35
2022/01/04 07:54:36;;;;;;;0.20;0.20;;;;;;;19.70;45.04;99286.59;5130940;27;20043;-34
2022/01/04 07:57:01;;;;;;;0.20;0.20;;;;;;;19.70;45.10;99289.34;5130526;27;20051;-35
2022/01/04 07:59:29;;;;;;;0.20;0.20;;;;;;;19.69;44.96;99279.44;5135132;27;20046;-34
2022/01/04 08:01:55;;;;;;;;;;;;;;;19.69;45.04;99281.38;5134444;27;20457;-34
2022/01/04 08:04:21;;;;;;;0.20;0.20;;;;;;;19.69;44.91;99270.31;5132395;27;19983;-35
2022/01/04 08:06:47;;;;;;;0.20;0.20;;;;;;;19.68;45.07;99283.31;5133107;27;20393;-34
2022/01/04 08:09:12;;;;;;;0.20;0.20;;;;;;;19.68;44.90;99286.06;5133871;27;20043;-34
2022/01/04 08:11:38;;;;;;;0.20;0.20;;;;;;;19.68;45.04;99288.84;5137337;27;20376;-34
2022/01/04 08:14:04;;;;;;;0.20;0.20;;;;;;;19.69;44.67;99287.72;5130706;27;20092;-34
2022/01/04 08:16:29;;;;;;;0.20;0.20;;;;;;;19.70;45.16;99289.34;5134248;27;20043;-34
2022/01/04 08:18:55;;;;;;;0.20;0.20;;;;;;;19.69;44.97;99286.88;5137517;27;20051;-34
2022/01/04 08:21:32;;;;;;;0.20;0.20;;;;;;;19.68;44.85;99286.06;5131504;27;20047;-34
2022/01/04 08:23:58;;;;;;;0.20;0.20;;;;;;;19.68;45.12;99286.06;5112364;27;20099;-34
2022/01/04 08:26:24;;;;;;;0.20;0.20;;;;;;;19.69;45.03;99284.13;5117689;27;20042;-34
2022/01/04 08:28:50;;;;;;;0.20;0.20;;;;;;;19.69;45.14;99286.88;5138409;27;20039;-38
2022/01/04 08:31:16;;;;;;;0.20;0.20;;;;;;;19.69;44.88;99273.91;5136058;27;20305;-35
2022/01/04 08:33:51;;;;;;;0.20;0.20;;;;;;;19.69;44.96;99270.31;5132888;27;20043;-34
2022/01/04 08:36:16;;;;;;;0.20;0.20;;;;;;;19.69;44.81;99267.56;5132277;27;20039;-34
2022/01/04 08:38:43;;;;;;;0.20;0.20;;;;;;;19.69;44.88;99259.28;5117557;27;20043;-34
2022/01/04 08:41:09;;;;;;;0.20;0.20;;;;;;;19.68;45.10;99268.69;5131022;27;20039;-34
2022/01/04 08:43:35;;;;;;;0.20;0.20;;;;;;;19.69;44.98;99267.56;5132114;27;20384;-34
2022/01/04 08:46:00;;;;;;;0.20;0.20;;;;;;;19.68;45.05;99263.97;5131931;27;20453;-34
2022/01/04 08:48:26;;;;;;;0.20;0.20;;;;;;;19.69;45.05;99264.78;5138072;27;20043;-34
2022/01/04 08:50:52;;;;;;;0.20;0.20;;;;;;;19.68;44.85;99269.50;5131334;27;20047;-34
2022/01/04 08:53:17;;;;;;;0.20;0.20;;;;;;;19.68;45.03;99279.75;5128273;27;20405;-34
2022/01/04 08:55:44;;;;;;;0.20;0.20;;;;;;;19.68;45.03;99283.31;5133081;27;20096;-35
2022/01/04 08:58:10;;;;;;;0.20;0.20;;;;;;;19.69;45.00;99286.88;5131098;27;20036;-35
2022/01/04 09:00:36;;;;;;;0.15;0.15;;;;;;;19.67;44.96;99287.22;5134168;27;20050;-34
2022/01/04 09:03:03;;;;;;;0.17;0.17;;;;;;;19.68;44.85;99283.31;5131227;27;20104;-34
2022/01/04 09:05:29;;;;;;;0.20;0.20;;;;;;;19.68;45.06;99275.03;5111620;28;20100;-34
2022/01/04 09:07:54;;;;;;;0.20;0.20;;;;;;;19.68;45.13;99272.28;5119355;28;20055;-34
2022/01/04 09:10:20;;;;;;;0.20;0.20;;;;;;;19.67;45.13;99280.88;5128259;27;20040;-34
2022/01/04 09:13:08;;;;;;;0.20;0.20;;;;;;;19.69;45.05;99292.41;5130490;27;20438;-34
2022/01/04 09:18:46;;;;;;;0.20;0.20;;;;;;;19.68;45.11;99308.16;5176868;27;20459;-34
2022/01/04 09:21:21;;;;;;;0.20;0.20;;;;;;;19.68;45.08;99310.94;5151166;27;20103;-35
2022/01/04 09:23:48;;;;;;;0.20;0.20;;;;;;;19.68;44.98;99304.59;5127426;27;20042;-35
2022/01/04 09:26:15;;;;;;;0.20;0.20;;;;;;;19.68;44.90;99302.66;5166012;27;20387;-34
2022/01/04 09:28:42;;;;;;;0.20;0.20;;;;;;;19.68;44.81;99301.84;5147117;27;20101;-34
2022/01/04 09:31:08;;;;;;;0.20;0.20;;;;;;;19.67;45.21;99300.22;5165019;27;20042;-35
2022/01/04 09:33:34;;;;;;;0.20;0.20;;;;;;;19.68;44.95;99280.56;5165604;27;20041;-35
2022/01/04 09:36:20;;;;;;;0.20;0.20;;;;;;;19.67;44.77;99278.94;5136075;27;20053;-35
2022/01/04 09:38:46;;;;;;;0.20;0.20;;;;;;;19.68;45.15;99276.97;5165524;27;20283;-34
2022/01/04 09:41:11;;;;;;;0.20;0.20;;;;;;;19.68;44.87;99279.75;5166556;27;20052;-34
2022/01/04 09:43:38;;;;;;;0.20;0.20;;;;;;;19.68;44.92;99283.31;5165305;27;20133;-36
2022/01/04 09:46:06;;;;;;;0.20;0.20;;;;;;;19.67;45.10;99292.75;5130984;27;20056;-37
2022/01/04 09:48:32;;;;;;;0.20;0.20;;;;;;;19.67;44.85;99303.78;5147853;27;20046;-34
2022/01/04 09:50:59;;;;;;;0.20;0.20;;;;;;;19.68;44.94;99321.16;5144889;27;20042;-37
2022/01/04 09:53:25;;;;;;;0.20;0.20;;;;;;;19.67;45.06;99294.69;5144885;27;20483;-34
2022/01/04 09:55:52;;;;;;;0.20;0.20;;;;;;;19.67;45.03;99295.50;5160672;27;20043;-34
2022/01/04 09:58:19;;;;;;;0.20;0.20;;;;;;;19.66;44.74;99293.88;5165932;27;20471;-35
2022/01/04 10:00:46;;;;;;;0.20;0.20;;;;;;;19.68;44.98;99301.84;5165870;27;20437;-36
2022/01/04 10:03:14;;;;;;;0.20;0.20;;;;;;;19.67;44.78;99284.47;5164972;27;20038;-34
2022/01/04 10:05:41;;;;;;;0.20;0.20;;;;;;;19.67;44.93;99281.69;5147305;27;20141;-34
2022/01/04 10:08:11;;;;;;;0.20;0.20;;;;;;;19.67;45.08;99289.97;5147533;27;20465;-34
2022/01/04 10:10:37;;;;;;;0.20;0.20;;;;;;;19.68;45.21;99285.28;5145406;27;20145;-34
2022/01/04 10:13:06;;;;;;;0.20;0.20;;;;;;;19.68;45.03;99283.31;5165593;27;20327;-34
2022/01/04 10:15:42;;;;;;;0.20;0.20;;;;;;;19.67;45.13;99281.69;5146116;27;20035;-34
2022/01/04 10:18:20;;;;;;;0.20;0.20;;;;;;;19.68;44.96;99282.50;5137615;27;20050;-35
2022/01/04 10:20:51;;;;;;;0.20;0.20;;;;;;;19.67;44.87;99289.97;5124250;27;20441;-34
2022/01/04 10:23:21;;;;;;;0.20;0.20;;;;;;;19.66;45.13;99287.56;5117219;27;20378;-34
2022/01/04 10:25:49;;;;;;;0.20;0.20;;;;;;;19.68;44.99;99293.56;5121783;27;20053;-33
2022/01/04 10:28:28;;;;;;;0.20;0.20;;;;;;;19.67;44.87;99286.41;5115613;28;20111;-34
2022/01/04 10:30:54;;;;;;;0.20;0.20;;;;;;;19.67;44.86;99300.22;5129056;28;20055;-34
2022/01/04 10:33:22;;;;;;;0.20;0.20;;;;;;;19.66;44.97;99298.59;5107083;28;20099;-34
2022/01/04 10:35:50;;;;;;;0.20;0.20;;;;;;;19.66;44.90;99291.13;5110065;28;20041;-34
2022/01/04 10:38:26;;;;;;;0.20;0.20;;;;;;;19.67;45.00;99289.19;5109550;28;20313;-34
2022/01/04 10:41:27;;;;;;;0.20;0.20;;;;;;;19.67;44.98;99281.69;5107818;28;20047;-33
2022/01/04 10:43:58;;;;;;;0.20;0.20;;;;;;;19.67;44.90;99281.69;5115350;28;20103;-34
2022/01/04 10:46:34;;;;;;;0.20;0.20;;;;;;;19.67;44.74;99275.38;5111349;28;20641;-34
2022/01/04 10:49:00;;;;;;;0.20;0.20;;;;;;;19.66;44.96;99271.78;5094878;28;20039;-34
2022/01/04 10:51:27;;;;;;;0.20;0.20;;;;;;;19.67;44.91;99278.13;5108660;28;20178;-34
2022/01/04 10:54:00;;;;;;;0.20;0.20;;;;;;;19.66;44.62;99274.56;5106871;28;20035;-35
2022/01/04 10:56:31;;;;;;;0.20;0.20;;;;;;;19.67;45.19;99258.78;5089652;28;20433;-33
2022/01/04 10:58:59;;;;;;;0.20;0.20;;;;;;;19.67;44.79;99259.59;5093583;28;20046;-34
2022/01/04 11:01:27;;;;;;;0.20;0.20;;;;;;;19.68;45.08;99268.69;5110642;28;20491;-34
2022/01/04 11:03:56;;;;;;;0.20;0.20;;;;;;;19.66;44.92;99274.56;5127281;28;20039;-39
2022/01/04 11:06:36;;;;;;;0.20;0.20;;;;;;;19.67;44.82;99262.38;5129623;28;20466;-34
2022/01/04 11:09:02;;;;;;;0.20;0.20;;;;;;;19.66;45.09;99255.22;5093252;28;20126;-33
2022/01/04 11:11:28;;;;;;;0.20;0.20;;;;;;;19.68;44.73;99252.13;5110957;28;20043;-33
2022/01/04 11:13:54;;;;;;;0.20;0.20;;;;;;;19.67;44.89;99265.13;5124589;28;20039;-33
2022/01/04 11:16:23;;;;;;;0.20;0.20;;;;;;;19.67;45.03;99269.84;5124549;28;20758;-33
2022/01/04 11:18:52;;;;;;;0.20;0.20;;;;;;;19.66;44.96;99279.28;5109306;28;20055;-34
2022/01/04 11:21:24;;;;;;;0.20;0.20;;;;;;;19.66;44.87;99273.75;5124637;28;20126;-33
2022/01/04 11:23:52;;;;;;;0.20;0.20;;;;;;;19.66;45.15;99285.59;5123117;28;20055;-36
2022/01/04 11:26:19;;;;;;;0.20;0.20;;;;;;;19.66;44.80;99280.06;5125821;28;20435;-34
2022/01/04 11:28:46;;;;;;;0.20;0.20;;;;;;;19.65;45.06;99270.19;5108613;28;20289;-33
2022/01/04 11:35:06;;;;;;;0.20;0.20;;;;;;;19.67;45.00;99258.78;5174493;27;20644;-34
2022/01/04 11:37:32;;;;;;;0.20;0.20;;;;;;;19.65;44.72;99256.38;5138538;27;20491;-34
2022/01/04 11:40:25;;;;;;;0.20;0.20;;;;;;;19.66;44.95;99265.47;5165415;27;20085;-34
2022/01/04 11:42:51;;;;;;;0.10;0.10;;;;;;;19.66;44.96;99265.47;5149851;27;20046;-34